sensor_id;sensor_type;location;lat;lon;timestamp;temperature;humidity
4759;DHT22;2393;50.560;12.636;2022-10-03T00:01:42;10.30;99.90
4759;DHT22;2393;50.560;12.636;2022-10-03T00:04:22;10.30;99.90
4759;DHT22;2393;50.560;12.636;2022-10-03T00:07:02;10.30;99.90
4759;DHT22;2393;50.560;12.636;2022-10-03T00:09:48;10.30;99.90
4759;DHT22;2393;50.560;12.636;2022-10-03T00:12:36;10.30;99.90
4759;DHT22;2393;50.560;12.636;2022-10-03T00:15:10;10.30;99.90
4759;DHT22;2393;50.560;12.636;2022-10-03T00:18:01;10.30;99.90
4759;DHT22;2393;50.560;12.636;2022-10-03T00:21:09;10.40;99.90
4759;DHT22;2393;50.560;12.636;2022-10-03T00:23:49;10.30;99.90
4759;DHT22;2393;50.560;12.636;2022-10-03T00:26:25;10.40;99.90
4759;DHT22;2393;50.560;12.636;2022-10-03T00:29:16;10.40;99.90
4759;DHT22;2393;50.560;12.636;2022-10-03T00:31:55;10.40;99.90
4759;DHT22;2393;50.560;12.636;2022-10-03T00:34:38;10.40;99.90
4759;DHT22;2393;50.560;12.636;2022-10-03T00:37:23;10.30;99.90
4759;DHT22;2393;50.560;12.636;2022-10-03T00:51:01;10.20;99.90
4759;DHT22;2393;50.560;12.636;2022-10-03T00:53:46;10.20;99.90
4759;DHT22;2393;50.560;12.636;2022-10-03T00:56:32;10.20;99.90
4759;DHT22;2393;50.560;12.636;2022-10-03T00:59:15;10.20;99.90
4759;DHT22;2393;50.560;12.636;2022-10-03T01:01:46;10.20;99.90
4759;DHT22;2393;50.560;12.636;2022-10-03T01:04:27;10.20;99.90
4759;DHT22;2393;50.560;12.636;2022-10-03T01:07:08;10.20;99.90
4759;DHT22;2393;50.560;12.636;2022-10-03T01:09:51;10.20;99.90
4759;DHT22;2393;50.560;12.636;2022-10-03T01:12:36;10.10;99.90
4759;DHT22;2393;50.560;12.636;2022-10-03T01:15:13;10.10;99.90
4759;DHT22;2393;50.560;12.636;2022-10-03T01:17:54;10.20;99.90
4759;DHT22;2393;50.560;12.636;2022-10-03T01:20:30;10.20;99.90
4759;DHT22;2393;50.560;12.636;2022-10-03T01:23:21;10.20;99.90
4759;DHT22;2393;50.560;12.636;2022-10-03T01:25:58;10.20;99.90
4759;DHT22;2393;50.560;12.636;2022-10-03T01:28:42;10.20;99.90
4759;DHT22;2393;50.560;12.636;2022-10-03T01:31:36;10.20;99.90
4759;DHT22;2393;50.560;12.636;2022-10-03T01:34:13;10.20;99.90
4759;DHT22;2393;50.560;12.636;2022-10-03T01:36:51;10.20;99.90
4759;DHT22;2393;50.560;12.636;2022-10-03T01:39:27;10.20;99.90
4759;DHT22;2393;50.560;12.636;2022-10-03T01:42:03;10.20;99.90
4759;DHT22;2393;50.560;12.636;2022-10-03T01:44:43;10.20;99.90
4759;DHT22;2393;50.560;12.636;2022-10-03T01:47:24;10.20;99.90
4759;DHT22;2393;50.560;12.636;2022-10-03T01:49:59;10.20;99.90
4759;DHT22;2393;50.560;12.636;2022-10-03T01:52:37;10.10;99.90
4759;DHT22;2393;50.560;12.636;2022-10-03T01:55:11;10.10;99.90
4759;DHT22;2393;50.560;12.636;2022-10-03T01:57:47;10.10;99.90
4759;DHT22;2393;50.560;12.636;2022-10-03T02:00:44;10.10;99.90
4759;DHT22;2393;50.560;12.636;2022-10-03T02:03:20;10.10;99.90
4759;DHT22;2393;50.560;12.636;2022-10-03T02:06:01;10.10;99.90
4759;DHT22;2393;50.560;12.636;2022-10-03T02:08:41;10.10;99.90
4759;DHT22;2393;50.560;12.636;2022-10-03T02:11:28;10.00;99.90
4759;DHT22;2393;50.560;12.636;2022-10-03T02:14:03;10.10;99.90
4759;DHT22;2393;50.560;12.636;2022-10-03T02:16:42;10.00;99.90
4759;DHT22;2393;50.560;12.636;2022-10-03T02:19:18;10.00;99.90
4759;DHT22;2393;50.560;12.636;2022-10-03T02:21:49;10.00;99.90
4759;DHT22;2393;50.560;12.636;2022-10-03T02:24:27;10.00;99.90
4759;DHT22;2393;50.560;12.636;2022-10-03T02:27:19;10.00;99.90
4759;DHT22;2393;50.560;12.636;2022-10-03T02:30:07;10.00;99.90
4759;DHT22;2393;50.560;12.636;2022-10-03T02:33:07;10.00;99.90
4759;DHT22;2393;50.560;12.636;2022-10-03T02:35:55;10.00;99.90
4759;DHT22;2393;50.560;12.636;2022-10-03T02:38:47;9.90;99.90
4759;DHT22;2393;50.560;12.636;2022-10-03T02:41:55;9.90;99.90
4759;DHT22;2393;50.560;12.636;2022-10-03T02:48:01;9.90;99.90
4759;DHT22;2393;50.560;12.636;2022-10-03T02:51:21;9.90;99.90
4759;DHT22;2393;50.560;12.636;2022-10-03T02:54:43;9.80;99.90
4759;DHT22;2393;50.560;12.636;2022-10-03T02:57:35;9.80;99.90
4759;DHT22;2393;50.560;12.636;2022-10-03T03:00:10;9.80;99.90
4759;DHT22;2393;50.560;12.636;2022-10-03T03:09:28;9.80;99.90
4759;DHT22;2393;50.560;12.636;2022-10-03T03:12:22;9.80;99.90
4759;DHT22;2393;50.560;12.636;2022-10-03T03:18:23;9.80;99.90
4759;DHT22;2393;50.560;12.636;2022-10-03T03:21:09;9.70;99.90
4759;DHT22;2393;50.560;12.636;2022-10-03T03:23:52;9.70;99.90
4759;DHT22;2393;50.560;12.636;2022-10-03T03:29:23;9.70;99.90
4759;DHT22;2393;50.560;12.636;2022-10-03T03:32:01;9.70;99.90
4759;DHT22;2393;50.560;12.636;2022-10-03T03:34:40;9.70;99.90
4759;DHT22;2393;50.560;12.636;2022-10-03T03:37:12;9.70;99.90
4759;DHT22;2393;50.560;12.636;2022-10-03T03:40:01;9.70;99.90
4759;DHT22;2393;50.560;12.636;2022-10-03T03:42:47;9.70;99.90
4759;DHT22;2393;50.560;12.636;2022-10-03T03:45:43;9.70;99.90
4759;DHT22;2393;50.560;12.636;2022-10-03T03:48:24;9.70;99.90
4759;DHT22;2393;50.560;12.636;2022-10-03T03:51:09;9.70;99.90
4759;DHT22;2393;50.560;12.636;2022-10-03T03:53:56;9.80;99.90
4759;DHT22;2393;50.560;12.636;2022-10-03T03:56:55;9.80;99.90
4759;DHT22;2393;50.560;12.636;2022-10-03T03:59:40;9.70;99.90
4759;DHT22;2393;50.560;12.636;2022-10-03T04:02:22;9.70;99.90
4759;DHT22;2393;50.560;12.636;2022-10-03T04:05:05;9.70;99.90
4759;DHT22;2393;50.560;12.636;2022-10-03T04:07:46;9.70;99.90
4759;DHT22;2393;50.560;12.636;2022-10-03T04:10:30;9.70;99.90
4759;DHT22;2393;50.560;12.636;2022-10-03T04:13:18;9.70;99.90
4759;DHT22;2393;50.560;12.636;2022-10-03T04:16:03;9.70;99.90
4759;DHT22;2393;50.560;12.636;2022-10-03T04:18:47;9.80;99.90
4759;DHT22;2393;50.560;12.636;2022-10-03T04:21:39;9.70;99.90
4759;DHT22;2393;50.560;12.636;2022-10-03T04:24:25;9.70;99.90
4759;DHT22;2393;50.560;12.636;2022-10-03T04:27:06;9.70;99.90
4759;DHT22;2393;50.560;12.636;2022-10-03T04:29:42;9.70;99.90
4759;DHT22;2393;50.560;12.636;2022-10-03T04:35:50;9.70;99.90
4759;DHT22;2393;50.560;12.636;2022-10-03T04:38:38;9.70;99.90
4759;DHT22;2393;50.560;12.636;2022-10-03T04:41:19;9.70;99.90
4759;DHT22;2393;50.560;12.636;2022-10-03T04:43:56;9.70;99.90
4759;DHT22;2393;50.560;12.636;2022-10-03T04:46:30;9.70;99.90
4759;DHT22;2393;50.560;12.636;2022-10-03T04:49:08;9.70;99.90
4759;DHT22;2393;50.560;12.636;2022-10-03T04:51:45;9.70;99.90
4759;DHT22;2393;50.560;12.636;2022-10-03T04:54:29;9.60;99.90
4759;DHT22;2393;50.560;12.636;2022-10-03T04:57:08;9.70;99.90
4759;DHT22;2393;50.560;12.636;2022-10-03T04:59:44;9.60;99.90
4759;DHT22;2393;50.560;12.636;2022-10-03T05:02:27;9.60;99.90
4759;DHT22;2393;50.560;12.636;2022-10-03T05:05:17;9.60;99.90
4759;DHT22;2393;50.560;12.636;2022-10-03T05:07:53;9.60;99.90
4759;DHT22;2393;50.560;12.636;2022-10-03T05:10:56;9.60;99.90
4759;DHT22;2393;50.560;12.636;2022-10-03T05:13:43;9.60;99.90
4759;DHT22;2393;50.560;12.636;2022-10-03T05:16:22;9.60;99.90
4759;DHT22;2393;50.560;12.636;2022-10-03T05:19:09;9.60;99.90
4759;DHT22;2393;50.560;12.636;2022-10-03T05:21:53;9.60;99.90
4759;DHT22;2393;50.560;12.636;2022-10-03T05:24:31;9.60;99.90
4759;DHT22;2393;50.560;12.636;2022-10-03T05:27:11;9.60;99.90
4759;DHT22;2393;50.560;12.636;2022-10-03T05:29:46;9.60;99.90
4759;DHT22;2393;50.560;12.636;2022-10-03T05:32:24;9.60;99.90
4759;DHT22;2393;50.560;12.636;2022-10-03T05:35:04;9.60;99.90
4759;DHT22;2393;50.560;12.636;2022-10-03T05:38:14;9.60;99.90
4759;DHT22;2393;50.560;12.636;2022-10-03T05:40:58;9.60;99.90
4759;DHT22;2393;50.560;12.636;2022-10-03T05:43:42;9.50;99.90
4759;DHT22;2393;50.560;12.636;2022-10-03T05:46:20;9.60;99.90
4759;DHT22;2393;50.560;12.636;2022-10-03T05:48:54;9.60;99.90
4759;DHT22;2393;50.560;12.636;2022-10-03T05:51:48;9.60;99.90
4759;DHT22;2393;50.560;12.636;2022-10-03T06:00:53;9.60;99.90
4759;DHT22;2393;50.560;12.636;2022-10-03T06:06:47;9.60;99.90
4759;DHT22;2393;50.560;12.636;2022-10-03T06:09:34;9.60;99.90
4759;DHT22;2393;50.560;12.636;2022-10-03T06:12:07;9.60;99.90
4759;DHT22;2393;50.560;12.636;2022-10-03T06:15:06;9.60;99.90
4759;DHT22;2393;50.560;12.636;2022-10-03T06:42:26;9.80;99.90
4759;DHT22;2393;50.560;12.636;2022-10-03T06:45:31;9.80;99.90
4759;DHT22;2393;50.560;12.636;2022-10-03T06:48:32;9.80;99.90
4759;DHT22;2393;50.560;12.636;2022-10-03T06:54:41;9.90;99.90
4759;DHT22;2393;50.560;12.636;2022-10-03T06:57:28;10.00;99.90
4759;DHT22;2393;50.560;12.636;2022-10-03T07:00:13;10.00;99.90
4759;DHT22;2393;50.560;12.636;2022-10-03T07:03:10;10.00;99.90
4759;DHT22;2393;50.560;12.636;2022-10-03T07:09:23;10.00;99.90
4759;DHT22;2393;50.560;12.636;2022-10-03T07:12:33;10.00;99.90
4759;DHT22;2393;50.560;12.636;2022-10-03T07:18:40;10.10;99.90
4759;DHT22;2393;50.560;12.636;2022-10-03T07:21:29;10.10;99.90
4759;DHT22;2393;50.560;12.636;2022-10-03T07:24:15;10.10;99.90
4759;DHT22;2393;50.560;12.636;2022-10-03T07:27:04;10.10;99.90
4759;DHT22;2393;50.560;12.636;2022-10-03T07:29:58;10.10;99.90
4759;DHT22;2393;50.560;12.636;2022-10-03T07:42:09;10.20;99.90
4759;DHT22;2393;50.560;12.636;2022-10-03T07:45:19;10.20;99.90
4759;DHT22;2393;50.560;12.636;2022-10-03T07:50:56;10.30;99.90
4759;DHT22;2393;50.560;12.636;2022-10-03T07:56:56;10.40;99.90
4759;DHT22;2393;50.560;12.636;2022-10-03T07:59:46;10.60;99.90
4759;DHT22;2393;50.560;12.636;2022-10-03T08:02:36;10.60;99.90
4759;DHT22;2393;50.560;12.636;2022-10-03T08:05:23;10.60;99.90
4759;DHT22;2393;50.560;12.636;2022-10-03T08:08:14;10.60;99.90
4759;DHT22;2393;50.560;12.636;2022-10-03T08:11:19;10.70;99.90
4759;DHT22;2393;50.560;12.636;2022-10-03T08:14:03;10.80;99.90
4759;DHT22;2393;50.560;12.636;2022-10-03T08:16:57;10.80;99.90
4759;DHT22;2393;50.560;12.636;2022-10-03T08:19:42;10.80;99.90
4759;DHT22;2393;50.560;12.636;2022-10-03T08:22:18;10.90;99.90
4759;DHT22;2393;50.560;12.636;2022-10-03T08:25:09;10.90;99.90
4759;DHT22;2393;50.560;12.636;2022-10-03T08:27:56;10.90;99.90
4759;DHT22;2393;50.560;12.636;2022-10-03T08:30:37;10.90;99.90
4759;DHT22;2393;50.560;12.636;2022-10-03T08:33:30;10.90;99.90
4759;DHT22;2393;50.560;12.636;2022-10-03T08:39:34;10.90;99.90
4759;DHT22;2393;50.560;12.636;2022-10-03T08:42:30;10.90;99.90
4759;DHT22;2393;50.560;12.636;2022-10-03T08:48:41;11.00;99.90
4759;DHT22;2393;50.560;12.636;2022-10-03T08:51:51;11.00;99.90
4759;DHT22;2393;50.560;12.636;2022-10-03T08:54:43;10.90;99.90
4759;DHT22;2393;50.560;12.636;2022-10-03T08:57:25;11.00;99.90
4759;DHT22;2393;50.560;12.636;2022-10-03T09:00:14;11.10;99.90
4759;DHT22;2393;50.560;12.636;2022-10-03T09:03:11;11.20;99.90
4759;DHT22;2393;50.560;12.636;2022-10-03T09:09:39;11.40;99.90
4759;DHT22;2393;50.560;12.636;2022-10-03T09:12:28;11.60;99.90
4759;DHT22;2393;50.560;12.636;2022-10-03T09:15:10;11.60;99.90
4759;DHT22;2393;50.560;12.636;2022-10-03T09:18:06;11.60;99.90
4759;DHT22;2393;50.560;12.636;2022-10-03T09:21:05;11.70;99.90
4759;DHT22;2393;50.560;12.636;2022-10-03T09:24:07;11.60;99.90
4759;DHT22;2393;50.560;12.636;2022-10-03T09:30:16;11.50;99.90
4759;DHT22;2393;50.560;12.636;2022-10-03T09:36:17;11.40;99.90
4759;DHT22;2393;50.560;12.636;2022-10-03T09:45:29;11.60;99.90
4759;DHT22;2393;50.560;12.636;2022-10-03T09:48:27;11.70;99.90
4759;DHT22;2393;50.560;12.636;2022-10-03T09:51:18;11.80;99.90
4759;DHT22;2393;50.560;12.636;2022-10-03T09:57:14;12.20;99.90
4759;DHT22;2393;50.560;12.636;2022-10-03T10:00:13;12.50;99.90
4759;DHT22;2393;50.560;12.636;2022-10-03T10:03:00;12.90;99.90
4759;DHT22;2393;50.560;12.636;2022-10-03T10:05:51;13.10;99.90
4759;DHT22;2393;50.560;12.636;2022-10-03T10:08:44;13.30;99.90
4759;DHT22;2393;50.560;12.636;2022-10-03T10:11:30;13.40;99.90
4759;DHT22;2393;50.560;12.636;2022-10-03T10:21:12;13.20;99.90
4759;DHT22;2393;50.560;12.636;2022-10-03T10:23:56;13.10;99.90
4759;DHT22;2393;50.560;12.636;2022-10-03T10:27:08;12.90;99.90
4759;DHT22;2393;50.560;12.636;2022-10-03T10:29:55;12.80;99.90
4759;DHT22;2393;50.560;12.636;2022-10-03T10:49:49;13.60;99.90
4759;DHT22;2393;50.560;12.636;2022-10-03T10:52:49;13.60;99.90
4759;DHT22;2393;50.560;12.636;2022-10-03T11:05:35;13.50;99.90
4759;DHT22;2393;50.560;12.636;2022-10-03T11:08:35;13.80;99.90
4759;DHT22;2393;50.560;12.636;2022-10-03T11:14:36;13.90;99.90
4759;DHT22;2393;50.560;12.636;2022-10-03T11:17:38;13.80;99.90
4759;DHT22;2393;50.560;12.636;2022-10-03T11:23:33;13.30;99.90
4759;DHT22;2393;50.560;12.636;2022-10-03T11:26:35;13.00;99.90
4759;DHT22;2393;50.560;12.636;2022-10-03T11:38:19;13.70;99.90
4759;DHT22;2393;50.560;12.636;2022-10-03T11:40:56;13.80;99.90
4759;DHT22;2393;50.560;12.636;2022-10-03T11:44:00;14.10;99.90
4759;DHT22;2393;50.560;12.636;2022-10-03T11:46:48;14.20;99.90
4759;DHT22;2393;50.560;12.636;2022-10-03T11:49:37;14.40;99.90
4759;DHT22;2393;50.560;12.636;2022-10-03T11:52:25;14.60;99.90
4759;DHT22;2393;50.560;12.636;2022-10-03T11:55:04;14.70;99.90
4759;DHT22;2393;50.560;12.636;2022-10-03T11:57:37;14.70;99.90
4759;DHT22;2393;50.560;12.636;2022-10-03T12:00:13;14.70;99.90
4759;DHT22;2393;50.560;12.636;2022-10-03T12:03:00;14.70;99.90
4759;DHT22;2393;50.560;12.636;2022-10-03T12:05:43;14.70;99.90
4759;DHT22;2393;50.560;12.636;2022-10-03T12:08:21;14.40;99.90
4759;DHT22;2393;50.560;12.636;2022-10-03T12:11:13;14.30;99.90
4759;DHT22;2393;50.560;12.636;2022-10-03T12:14:00;14.00;99.90
4759;DHT22;2393;50.560;12.636;2022-10-03T12:16:51;13.90;99.90
4759;DHT22;2393;50.560;12.636;2022-10-03T12:19:28;13.70;99.90
4759;DHT22;2393;50.560;12.636;2022-10-03T12:22:06;13.60;99.90
4759;DHT22;2393;50.560;12.636;2022-10-03T12:24:38;13.50;99.90
4759;DHT22;2393;50.560;12.636;2022-10-03T12:27:15;13.60;99.90
4759;DHT22;2393;50.560;12.636;2022-10-03T12:29:53;13.80;99.90
4759;DHT22;2393;50.560;12.636;2022-10-03T12:32:45;14.00;99.90
4759;DHT22;2393;50.560;12.636;2022-10-03T12:35:30;14.40;99.90
4759;DHT22;2393;50.560;12.636;2022-10-03T12:38:13;14.50;99.90
4759;DHT22;2393;50.560;12.636;2022-10-03T12:40:50;14.50;99.90
4759;DHT22;2393;50.560;12.636;2022-10-03T12:43:35;14.40;99.90
4759;DHT22;2393;50.560;12.636;2022-10-03T12:46:12;14.40;99.90
4759;DHT22;2393;50.560;12.636;2022-10-03T12:48:49;14.40;99.90
4759;DHT22;2393;50.560;12.636;2022-10-03T12:51:32;14.30;99.90
4759;DHT22;2393;50.560;12.636;2022-10-03T12:54:08;14.30;99.90
4759;DHT22;2393;50.560;12.636;2022-10-03T12:56:47;14.30;99.90
4759;DHT22;2393;50.560;12.636;2022-10-03T12:59:25;14.30;99.90
4759;DHT22;2393;50.560;12.636;2022-10-03T13:02:26;14.30;99.90
4759;DHT22;2393;50.560;12.636;2022-10-03T13:05:27;14.20;99.90
4759;DHT22;2393;50.560;12.636;2022-10-03T13:07:59;14.00;99.90
4759;DHT22;2393;50.560;12.636;2022-10-03T13:10:36;14.00;99.90
4759;DHT22;2393;50.560;12.636;2022-10-03T13:13:19;13.90;99.90
4759;DHT22;2393;50.560;12.636;2022-10-03T13:16:16;13.90;99.90
4759;DHT22;2393;50.560;12.636;2022-10-03T13:18:54;13.80;99.90
4759;DHT22;2393;50.560;12.636;2022-10-03T13:21:35;13.70;99.90
4759;DHT22;2393;50.560;12.636;2022-10-03T13:24:25;13.50;99.90
4759;DHT22;2393;50.560;12.636;2022-10-03T13:27:04;13.40;99.90
4759;DHT22;2393;50.560;12.636;2022-10-03T13:29:40;13.30;99.90
4759;DHT22;2393;50.560;12.636;2022-10-03T13:32:17;13.20;99.90
4759;DHT22;2393;50.560;12.636;2022-10-03T13:35:04;13.10;99.90
4759;DHT22;2393;50.560;12.636;2022-10-03T13:38:16;13.10;99.90
4759;DHT22;2393;50.560;12.636;2022-10-03T13:40:53;13.00;99.90
4759;DHT22;2393;50.560;12.636;2022-10-03T13:43:27;13.00;99.90
4759;DHT22;2393;50.560;12.636;2022-10-03T13:46:05;13.00;99.90
4759;DHT22;2393;50.560;12.636;2022-10-03T13:48:39;13.10;99.90
4759;DHT22;2393;50.560;12.636;2022-10-03T13:51:18;13.10;99.90
4759;DHT22;2393;50.560;12.636;2022-10-03T13:53:55;13.30;99.90
4759;DHT22;2393;50.560;12.636;2022-10-03T13:56:41;13.40;99.90
4759;DHT22;2393;50.560;12.636;2022-10-03T13:59:30;13.50;99.90
4759;DHT22;2393;50.560;12.636;2022-10-03T14:02:14;13.50;99.90
4759;DHT22;2393;50.560;12.636;2022-10-03T14:05:01;13.50;99.90
4759;DHT22;2393;50.560;12.636;2022-10-03T14:07:41;13.50;99.90
4759;DHT22;2393;50.560;12.636;2022-10-03T14:10:26;13.60;99.90
4759;DHT22;2393;50.560;12.636;2022-10-03T14:13:10;13.60;99.90
4759;DHT22;2393;50.560;12.636;2022-10-03T14:15:47;13.60;99.90
4759;DHT22;2393;50.560;12.636;2022-10-03T14:18:28;13.60;99.90
4759;DHT22;2393;50.560;12.636;2022-10-03T14:21:24;13.50;99.90
4759;DHT22;2393;50.560;12.636;2022-10-03T14:24:01;13.50;99.90
4759;DHT22;2393;50.560;12.636;2022-10-03T14:26:37;13.40;99.90
4759;DHT22;2393;50.560;12.636;2022-10-03T14:29:13;13.30;99.90
4759;DHT22;2393;50.560;12.636;2022-10-03T14:31:49;13.20;99.90
4759;DHT22;2393;50.560;12.636;2022-10-03T14:34:36;13.20;99.90
4759;DHT22;2393;50.560;12.636;2022-10-03T14:37:15;13.20;99.90
4759;DHT22;2393;50.560;12.636;2022-10-03T14:39:55;13.10;99.90
4759;DHT22;2393;50.560;12.636;2022-10-03T14:42:51;13.00;99.90
4759;DHT22;2393;50.560;12.636;2022-10-03T14:45:23;13.00;99.90
4759;DHT22;2393;50.560;12.636;2022-10-03T14:48:02;13.10;99.90
4759;DHT22;2393;50.560;12.636;2022-10-03T14:50:37;13.10;99.90
4759;DHT22;2393;50.560;12.636;2022-10-03T14:53:11;13.10;99.90
4759;DHT22;2393;50.560;12.636;2022-10-03T14:55:45;13.10;99.90
4759;DHT22;2393;50.560;12.636;2022-10-03T14:58:25;13.10;99.90
4759;DHT22;2393;50.560;12.636;2022-10-03T15:01:02;13.10;99.90
4759;DHT22;2393;50.560;12.636;2022-10-03T15:03:35;13.10;99.90
4759;DHT22;2393;50.560;12.636;2022-10-03T15:06:21;13.10;99.90
4759;DHT22;2393;50.560;12.636;2022-10-03T15:08:52;13.10;99.90
4759;DHT22;2393;50.560;12.636;2022-10-03T15:11:25;13.10;99.90
4759;DHT22;2393;50.560;12.636;2022-10-03T15:14:00;13.10;99.90
4759;DHT22;2393;50.560;12.636;2022-10-03T15:16:32;13.10;99.90
4759;DHT22;2393;50.560;12.636;2022-10-03T15:19:05;13.10;99.90
4759;DHT22;2393;50.560;12.636;2022-10-03T15:21:36;13.10;99.90
4759;DHT22;2393;50.560;12.636;2022-10-03T15:24:09;13.10;99.90
4759;DHT22;2393;50.560;12.636;2022-10-03T15:26:42;13.00;99.90
4759;DHT22;2393;50.560;12.636;2022-10-03T15:29:18;13.00;99.90
4759;DHT22;2393;50.560;12.636;2022-10-03T15:31:48;13.00;99.90
4759;DHT22;2393;50.560;12.636;2022-10-03T15:34:18;13.00;99.90
4759;DHT22;2393;50.560;12.636;2022-10-03T15:36:49;13.00;99.90
4759;DHT22;2393;50.560;12.636;2022-10-03T15:39:21;13.00;99.90
4759;DHT22;2393;50.560;12.636;2022-10-03T15:41:53;13.00;99.90
4759;DHT22;2393;50.560;12.636;2022-10-03T15:44:27;13.00;99.90
4759;DHT22;2393;50.560;12.636;2022-10-03T15:47:02;12.90;99.90
4759;DHT22;2393;50.560;12.636;2022-10-03T15:49:35;12.90;99.90
4759;DHT22;2393;50.560;12.636;2022-10-03T15:52:11;12.80;99.90
4759;DHT22;2393;50.560;12.636;2022-10-03T15:54:45;12.80;99.90
4759;DHT22;2393;50.560;12.636;2022-10-03T15:57:18;12.80;99.90
4759;DHT22;2393;50.560;12.636;2022-10-03T15:59:53;12.80;99.90
4759;DHT22;2393;50.560;12.636;2022-10-03T16:02:36;12.70;99.90
4759;DHT22;2393;50.560;12.636;2022-10-03T16:05:13;12.70;99.90
4759;DHT22;2393;50.560;12.636;2022-10-03T16:07:54;12.60;99.90
4759;DHT22;2393;50.560;12.636;2022-10-03T16:10:24;12.60;99.90
4759;DHT22;2393;50.560;12.636;2022-10-03T16:12:58;12.50;99.90
4759;DHT22;2393;50.560;12.636;2022-10-03T16:15:47;12.50;99.90
4759;DHT22;2393;50.560;12.636;2022-10-03T16:18:50;12.40;99.90
4759;DHT22;2393;50.560;12.636;2022-10-03T16:21:37;12.40;99.90
4759;DHT22;2393;50.560;12.636;2022-10-03T16:24:21;12.40;99.90
4759;DHT22;2393;50.560;12.636;2022-10-03T16:26:55;12.30;99.90
4759;DHT22;2393;50.560;12.636;2022-10-03T16:29:26;12.20;99.90
4759;DHT22;2393;50.560;12.636;2022-10-03T16:32:01;12.20;99.90
4759;DHT22;2393;50.560;12.636;2022-10-03T16:34:31;12.20;99.90
4759;DHT22;2393;50.560;12.636;2022-10-03T16:37:03;12.10;99.90
4759;DHT22;2393;50.560;12.636;2022-10-03T16:39:41;12.10;99.90
4759;DHT22;2393;50.560;12.636;2022-10-03T16:42:22;12.00;99.90
4759;DHT22;2393;50.560;12.636;2022-10-03T16:44:54;12.00;99.90
4759;DHT22;2393;50.560;12.636;2022-10-03T16:47:32;11.90;99.90
4759;DHT22;2393;50.560;12.636;2022-10-03T16:50:03;11.90;99.90
4759;DHT22;2393;50.560;12.636;2022-10-03T16:52:51;11.90;99.90
4759;DHT22;2393;50.560;12.636;2022-10-03T16:55:26;11.80;99.90
4759;DHT22;2393;50.560;12.636;2022-10-03T16:57:56;11.80;99.90
4759;DHT22;2393;50.560;12.636;2022-10-03T17:00:32;11.80;99.90
4759;DHT22;2393;50.560;12.636;2022-10-03T17:03:04;11.80;99.90
4759;DHT22;2393;50.560;12.636;2022-10-03T17:05:44;11.80;99.90
4759;DHT22;2393;50.560;12.636;2022-10-03T17:08:16;11.80;99.90
4759;DHT22;2393;50.560;12.636;2022-10-03T17:11:06;11.80;99.90
4759;DHT22;2393;50.560;12.636;2022-10-03T17:13:41;11.80;99.90
4759;DHT22;2393;50.560;12.636;2022-10-03T17:16:15;11.80;99.90
4759;DHT22;2393;50.560;12.636;2022-10-03T17:18:59;11.70;99.90
4759;DHT22;2393;50.560;12.636;2022-10-03T17:21:30;11.70;99.90
4759;DHT22;2393;50.560;12.636;2022-10-03T17:24:04;11.70;99.90
4759;DHT22;2393;50.560;12.636;2022-10-03T17:26:37;11.70;99.90
4759;DHT22;2393;50.560;12.636;2022-10-03T17:29:11;11.70;99.90
4759;DHT22;2393;50.560;12.636;2022-10-03T17:31:44;11.70;99.90
4759;DHT22;2393;50.560;12.636;2022-10-03T17:34:17;11.70;99.90
4759;DHT22;2393;50.560;12.636;2022-10-03T17:39:49;11.70;99.90
4759;DHT22;2393;50.560;12.636;2022-10-03T17:42:41;11.70;99.90
4759;DHT22;2393;50.560;12.636;2022-10-03T17:45:22;11.70;99.90
4759;DHT22;2393;50.560;12.636;2022-10-03T17:47:55;11.70;99.90
4759;DHT22;2393;50.560;12.636;2022-10-03T17:50:28;11.70;99.90
4759;DHT22;2393;50.560;12.636;2022-10-03T17:52:58;11.70;99.90
4759;DHT22;2393;50.560;12.636;2022-10-03T17:55:31;11.70;99.90
4759;DHT22;2393;50.560;12.636;2022-10-03T17:58:04;11.70;99.90
4759;DHT22;2393;50.560;12.636;2022-10-03T18:00:37;11.70;99.90
4759;DHT22;2393;50.560;12.636;2022-10-03T18:03:09;11.70;99.90
4759;DHT22;2393;50.560;12.636;2022-10-03T18:05:45;11.70;99.90
4759;DHT22;2393;50.560;12.636;2022-10-03T18:08:18;11.70;99.90
4759;DHT22;2393;50.560;12.636;2022-10-03T18:10:49;11.70;99.90
4759;DHT22;2393;50.560;12.636;2022-10-03T18:13:22;11.70;99.90
4759;DHT22;2393;50.560;12.636;2022-10-03T18:16:10;11.80;99.90
4759;DHT22;2393;50.560;12.636;2022-10-03T18:18:59;11.70;99.90
4759;DHT22;2393;50.560;12.636;2022-10-03T18:21:52;11.70;99.90
4759;DHT22;2393;50.560;12.636;2022-10-03T18:24:39;11.70;99.90
4759;DHT22;2393;50.560;12.636;2022-10-03T18:27:28;11.60;99.90
4759;DHT22;2393;50.560;12.636;2022-10-03T18:30:03;11.60;99.90
4759;DHT22;2393;50.560;12.636;2022-10-03T18:32:37;11.60;99.90
4759;DHT22;2393;50.560;12.636;2022-10-03T18:35:10;11.60;99.90
4759;DHT22;2393;50.560;12.636;2022-10-03T18:38:01;11.60;99.90
4759;DHT22;2393;50.560;12.636;2022-10-03T18:40:33;11.60;99.90
4759;DHT22;2393;50.560;12.636;2022-10-03T18:43:03;11.60;99.90
4759;DHT22;2393;50.560;12.636;2022-10-03T18:45:36;11.60;99.90
4759;DHT22;2393;50.560;12.636;2022-10-03T18:48:11;11.60;99.90
4759;DHT22;2393;50.560;12.636;2022-10-03T18:50:51;11.50;99.90
4759;DHT22;2393;50.560;12.636;2022-10-03T18:53:27;11.50;99.90
4759;DHT22;2393;50.560;12.636;2022-10-03T18:56:00;11.50;99.90
4759;DHT22;2393;50.560;12.636;2022-10-03T18:58:32;11.50;99.90
4759;DHT22;2393;50.560;12.636;2022-10-03T19:01:04;11.60;99.90
4759;DHT22;2393;50.560;12.636;2022-10-03T19:03:36;11.60;99.90
4759;DHT22;2393;50.560;12.636;2022-10-03T19:06:10;11.60;99.90
4759;DHT22;2393;50.560;12.636;2022-10-03T19:08:49;11.50;99.90
4759;DHT22;2393;50.560;12.636;2022-10-03T19:11:20;11.40;99.90
4759;DHT22;2393;50.560;12.636;2022-10-03T19:13:57;11.40;99.90
4759;DHT22;2393;50.560;12.636;2022-10-03T19:16:38;11.40;99.90
4759;DHT22;2393;50.560;12.636;2022-10-03T19:19:13;11.30;99.90
4759;DHT22;2393;50.560;12.636;2022-10-03T19:21:44;11.30;99.90
4759;DHT22;2393;50.560;12.636;2022-10-03T19:24:18;11.30;99.90
4759;DHT22;2393;50.560;12.636;2022-10-03T19:31:23;11.30;99.90
4759;DHT22;2393;50.560;12.636;2022-10-03T19:37:31;11.30;99.90
4759;DHT22;2393;50.560;12.636;2022-10-03T19:44:17;11.20;99.90
4759;DHT22;2393;50.560;12.636;2022-10-03T19:47:14;11.20;99.90
4759;DHT22;2393;50.560;12.636;2022-10-03T19:57:40;11.10;99.90
4759;DHT22;2393;50.560;12.636;2022-10-03T20:00:28;11.00;99.90
4759;DHT22;2393;50.560;12.636;2022-10-03T20:03:09;11.00;99.90
4759;DHT22;2393;50.560;12.636;2022-10-03T20:05:44;10.90;99.90
4759;DHT22;2393;50.560;12.636;2022-10-03T20:08:20;10.80;99.90
4759;DHT22;2393;50.560;12.636;2022-10-03T20:11:22;10.80;99.90
4759;DHT22;2393;50.560;12.636;2022-10-03T20:13:54;10.70;99.90
4759;DHT22;2393;50.560;12.636;2022-10-03T20:16:24;10.70;99.90
4759;DHT22;2393;50.560;12.636;2022-10-03T20:19:02;10.70;99.90
4759;DHT22;2393;50.560;12.636;2022-10-03T20:21:34;10.60;99.90
4759;DHT22;2393;50.560;12.636;2022-10-03T20:24:09;10.60;99.90
4759;DHT22;2393;50.560;12.636;2022-10-03T20:26:44;10.60;99.90
4759;DHT22;2393;50.560;12.636;2022-10-03T20:29:27;10.60;99.90
4759;DHT22;2393;50.560;12.636;2022-10-03T20:32:02;10.60;99.90
4759;DHT22;2393;50.560;12.636;2022-10-03T20:34:34;10.60;99.90
4759;DHT22;2393;50.560;12.636;2022-10-03T20:37:16;10.50;99.90